Lodestar Genesis — S6BJ3 — position and weather

sailwx.info

Track history (hours):
 
Tides and Currents Weather Stations Pressure Air Temp Water Temp Dewpoint Dewpoint Depression Visibility Wind Speed Wind Dir Waves Ship Positions

Lodestar Genesis

Last reported at 2017-Dec-07 00:11 UTC. Time now 2017-Dec-13 17:03 UTC.
Position N 01°13' E 103°56'.

Length 134 m; draft 7.2 m.

Type: Ship (hazmat cat B). MMSI: 566726000.

Date/timePositionNaut miles runAvg speedWind from/ knotsBaromVisibWave heightAir tempDewpointWater temp
2017-Dec-07 00:11N 01°13' E 103°56'212.0
2017-Dec-07 00:00N 01°12' E 103°54'611.3
2017-Dec-06 23:30N 01°10' E 103°48'611.5
2017-Dec-06 22:59N 01°06' E 103°44'611.9
2017-Dec-06 22:28N 01°03' E 103°39'613.0
2017-Dec-06 21:59N 01°06' E 103°33'  
2017-Dec-04 01:17N 01°13' E 103°57'312.0
2017-Dec-04 01:00N 01°12' E 103°54'510.8
2017-Dec-04 00:30N 01°10' E 103°49'511.0
2017-Dec-04 00:00N 01°06' E 103°45'711.7
2017-Dec-03 23:25N 01°03' E 103°38'512.0
2017-Dec-03 23:01N 01°06' E 103°35'5 8.9
2017-Dec-03 22:30N 01°11' E 103°35'4 8.7
2017-Dec-03 22:00N 01°13' E 103°39'0 0.1
2017-Dec-03 20:28N 01°14' E 103°38'0 0.0
2017-Dec-03 17:28N 01°14' E 103°38'0 0.1
2017-Dec-03 16:52N 01°14' E 103°38'0 0.0
2017-Dec-03 09:58N 01°14' E 103°39'2 3.6
2017-Dec-03 09:30N 01°13' E 103°40'4 8.9
2017-Dec-03 09:00N 01°15' E 103°44'2 1.3
2017-Dec-03 07:15N 01°18' E 103°45'0 0.0
2017-Dec-03 06:54N 01°18' E 103°45'0 0.0
2017-Dec-03 06:30N 01°18' E 103°45'0 0.0
2017-Dec-03 06:00N 01°18' E 103°45'0 0.0
2017-Dec-03 05:27N 01°18' E 103°45'0 0.0
2017-Dec-03 04:48N 01°18' E 103°45'0 0.0
2017-Dec-03 04:18N 01°18' E 103°45'0 0.0
2017-Dec-03 04:00N 01°18' E 103°45'0 0.0
2017-Dec-03 03:21N 01°18' E 103°45'0 0.0
2017-Dec-03 02:48N 01°18' E 103°45'0 0.0
2017-Dec-03 02:27N 01°18' E 103°45'0 0.0
2017-Dec-03 01:57N 01°18' E 103°45'0 0.0
2017-Dec-03 01:30N 01°18' E 103°45'0 0.0
2017-Dec-02 23:45N 01°18' E 103°45'0 0.0
2017-Dec-02 22:00N 01°18' E 103°45'0 0.0
2017-Dec-02 17:25N 01°18' E 103°45'1 2.2
2017-Dec-02 17:00N 01°17' E 103°45'2 4.6
2017-Dec-02 16:30N 01°15' E 103°44'2 0.2
2017-Dec-02 08:45N 01°15' E 103°42'0 0.0
2017-Dec-02 08:30N 01°15' E 103°42'0 0.0
2017-Dec-02 07:42N 01°15' E 103°42'0 0.0
2017-Dec-02 07:27N 01°15' E 103°42'0 0.0
2017-Dec-02 06:45N 01°15' E 103°42'0 0.0
2017-Dec-02 06:30N 01°15' E 103°42'0 0.0
2017-Dec-02 04:45N 01°15' E 103°42'0 0.0
2017-Dec-02 04:06N 01°15' E 103°42'0 0.0
2017-Dec-02 03:39N 01°15' E 103°42'0 0.0
2017-Dec-02 02:39N 01°15' E 103°42'0 0.0
2017-Dec-02 01:42N 01°15' E 103°42'0 0.0
2017-Dec-02 01:27N 01°15' E 103°42'0 0.0
2017-Dec-01 23:21N 01°15' E 103°42'0 0.0
2017-Dec-01 16:03N 01°15' E 103°42'0 0.0
2017-Dec-01 15:54N 01°15' E 103°42'0 0.0
2017-Dec-01 11:45N 01°15' E 103°42'0 0.0
2017-Dec-01 11:12N 01°15' E 103°42'0 0.0
2017-Dec-01 10:51N 01°15' E 103°42'0 0.0
2017-Dec-01 10:18N 01°15' E 103°42'0 0.0
2017-Dec-01 08:36N 01°15' E 103°42'0 0.4
2017-Dec-01 08:27N 01°15' E 103°42'1 1.6
2017-Dec-01 08:00N 01°14' E 103°42'4 7.5
2017-Dec-01 07:30N 01°13' E 103°39'0 0.3
2017-Dec-01 06:56N 01°13' E 103°39'0 0.0
2017-Dec-01 06:29N 01°13' E 103°39'0 0.0
2017-Dec-01 05:59N 01°13' E 103°39'0 0.0
2017-Dec-01 05:29N 01°13' E 103°39'0 0.0
2017-Dec-01 04:59N 01°13' E 103°39'0 0.1
2017-Dec-01 04:26N 01°13' E 103°39'0 0.0
2017-Dec-01 04:01N 01°13' E 103°39'1 1.9
2017-Dec-01 03:31N 01°12' E 103°39'4 7.1
2017-Dec-01 03:01N 01°12' E 103°36'1 2.4
2017-Dec-01 02:29N 01°13' E 103°35'0 0.0
2017-Dec-01 01:56N 01°13' E 103°35'0 0.0
2017-Dec-01 01:29N 01°13' E 103°35'0 0.0
2017-Dec-01 00:59N 01°13' E 103°35'0 0.0
2017-Dec-01 00:29N 01°13' E 103°35'0 0.0
2017-Nov-30 23:59N 01°13' E 103°35'0 0.0
2017-Nov-30 23:29N 01°13' E 103°35'0 0.0
2017-Nov-30 22:59N 01°13' E 103°35'0 0.1
2017-Nov-30 22:29N 01°13' E 103°35'0 0.5
2017-Nov-30 22:00N 01°13' E 103°35'2 4.0
2017-Nov-30 21:30N 01°11' E 103°34'1 2.8
2017-Nov-30 21:00N 01°10' E 103°33'5 9.1
2017-Nov-30 20:28N 01°06' E 103°30'1 1.7
2017-Nov-30 19:57N 01°06' E 103°29'0 0.0
2017-Nov-30 05:07N 01°05' E 103°29'0 0.2
2017-Nov-30 05:01N 01°05' E 103°29'1 1.2
2017-Nov-30 04:30N 01°05' E 103°30'0 0.7
2017-Nov-30 03:57N 01°05' E 103°30'0 0.0
2017-Nov-30 03:30N 01°05' E 103°30'0 0.0
2017-Nov-30 02:57N 01°05' E 103°30'0 0.0
2017-Nov-30 02:30N 01°05' E 103°30'0 0.0
2017-Nov-30 01:48N 01°05' E 103°30'0 0.0
2017-Nov-30 01:24N 01°05' E 103°30'0 0.0
2017-Nov-30 00:54N 01°05' E 103°30'0 0.0
2017-Nov-30 00:30N 01°05' E 103°30'0 0.0
2017-Nov-29 23:57N 01°05' E 103°30'0 0.0
2017-Nov-29 23:30N 01°05' E 103°30'0 0.0
2017-Nov-29 22:39N 01°05' E 103°30'0 0.0
2017-Nov-29 22:30N 01°05' E 103°30'0 0.0
2017-Nov-29 21:57N 01°05' E 103°30'0 0.0
2017-Nov-29 21:12N 01°05' E 103°30'0 0.0
2017-Nov-29 20:57N 01°05' E 103°30'0 0.0
2017-Nov-29 20:21N 01°05' E 103°30'0 0.0
2017-Nov-29 19:51N 01°05' E 103°30'0 0.0
2017-Nov-29 19:21N 01°05' E 103°30'0 0.0
2017-Nov-29 18:51N 01°05' E 103°30'0 0.0
2017-Nov-29 17:15N 01°05' E 103°30'0 0.0
2017-Nov-29 16:33N 01°05' E 103°30'0 0.4
2017-Nov-29 16:27N 01°05' E 103°30'0 0.0
2017-Nov-29 15:54N 01°05' E 103°30'0 0.0
2017-Nov-29 15:21N 01°05' E 103°30'0 0.0
2017-Nov-29 14:39N 01°05' E 103°30'0 0.0
2017-Nov-29 14:30N 01°05' E 103°30'0 0.0
2017-Nov-29 13:36N 01°05' E 103°30'0 0.1
2017-Nov-29 13:30N 01°05' E 103°30'0 0.0
2017-Nov-29 12:48N 01°05' E 103°30'0 0.0
2017-Nov-29 12:29N 01°05' E 103°30'0 0.0
2017-Nov-29 10:44N 01°05' E 103°30'0 0.0
2017-Nov-29 10:17N 01°05' E 103°30'0 0.0
2017-Nov-29 09:47N 01°05' E 103°30'0 0.1
2017-Nov-29 09:29N 01°05' E 103°30'0 0.0
2017-Nov-29 08:44N 01°05' E 103°30'0 0.0
2017-Nov-29 08:20N 01°05' E 103°30'0 0.0
2017-Nov-29 05:38N 01°05' E 103°30'0 0.0
2017-Nov-29 04:14N 01°05' E 103°30'0 0.0
2017-Nov-29 03:38N 01°05' E 103°30'0 0.1
2017-Nov-29 03:29N 01°05' E 103°30'0 0.0
2017-Nov-29 02:59N 01°05' E 103°30'0 0.0
2017-Nov-29 01:26N 01°05' E 103°30'0 0.0
2017-Nov-29 00:59N 01°05' E 103°30'0 0.0
2017-Nov-29 00:29N 01°05' E 103°30'0 0.0
2017-Nov-28 23:59N 01°05' E 103°30'0 0.0
2017-Nov-28 23:26N 01°05' E 103°30'0 0.0
2017-Nov-28 22:38N 01°05' E 103°30'0 0.1
2017-Nov-28 22:29N 01°05' E 103°30'0 0.0
2017-Nov-28 21:47N 01°05' E 103°30'0 0.0
2017-Nov-28 21:23N 01°05' E 103°30'0 0.0
2017-Nov-28 20:59N 01°05' E 103°30'0 0.0
2017-Nov-28 19:35N 01°05' E 103°30'0 0.2
2017-Nov-28 19:14N 01°05' E 103°30'0 2.0
2017-Nov-28 19:00N 01°05' E 103°30'1 2.3
2017-Nov-28 18:30N 01°06' E 103°31'510.4
2017-Nov-28 17:59N 01°10' E 103°34'612.6
2017-Nov-28 17:30N 01°11' E 103°40'612.1
2017-Nov-28 17:00N 01°09' E 103°46'713.0
2017-Nov-28 16:30N 01°12' E 103°52'713.1
2017-Nov-28 16:00N 01°15' E 103°57'  
Track history (hours):
 
Tides and Currents Weather Stations Pressure Air Temp Water Temp Dewpoint Dewpoint Depression Visibility Wind Speed Wind Dir Waves Ship Positions

Lodestar Genesis

Last reported at 2017-Dec-07 00:11 UTC. Time now 2017-Dec-13 17:03 UTC.
Position N 01°13' E 103°56'.

Length 134 m; draft 7.2 m.

Type: Ship (hazmat cat B). MMSI: 566726000.

Date/timePositionNaut miles runAvg speedWind from/ knotsBaromVisibWave heightAir tempDewpointWater temp
2017-Dec-07 00:11N 01°13' E 103°56'212.0
2017-Dec-07 00:00N 01°12' E 103°54'611.3
2017-Dec-06 23:30N 01°10' E 103°48'611.5
2017-Dec-06 22:59N 01°06' E 103°44'611.9
2017-Dec-06 22:28N 01°03' E 103°39'613.0
2017-Dec-06 21:59N 01°06' E 103°33'  
2017-Dec-04 01:17N 01°13' E 103°57'312.0
2017-Dec-04 01:00N 01°12' E 103°54'510.8
2017-Dec-04 00:30N 01°10' E 103°49'511.0
2017-Dec-04 00:00N 01°06' E 103°45'711.7
2017-Dec-03 23:25N 01°03' E 103°38'512.0
2017-Dec-03 23:01N 01°06' E 103°35'5 8.9
2017-Dec-03 22:30N 01°11' E 103°35'4 8.7
2017-Dec-03 22:00N 01°13' E 103°39'0 0.1
2017-Dec-03 20:28N 01°14' E 103°38'0 0.0
2017-Dec-03 17:28N 01°14' E 103°38'0 0.1
2017-Dec-03 16:52N 01°14' E 103°38'0 0.0
2017-Dec-03 09:58N 01°14' E 103°39'2 3.6
2017-Dec-03 09:30N 01°13' E 103°40'4 8.9
2017-Dec-03 09:00N 01°15' E 103°44'2 1.3
2017-Dec-03 07:15N 01°18' E 103°45'0 0.0
2017-Dec-03 06:54N 01°18' E 103°45'0 0.0
2017-Dec-03 06:30N 01°18' E 103°45'0 0.0
2017-Dec-03 06:00N 01°18' E 103°45'0 0.0
2017-Dec-03 05:27N 01°18' E 103°45'0 0.0
2017-Dec-03 04:48N 01°18' E 103°45'0 0.0
2017-Dec-03 04:18N 01°18' E 103°45'0 0.0
2017-Dec-03 04:00N 01°18' E 103°45'0 0.0
2017-Dec-03 03:21N 01°18' E 103°45'0 0.0
2017-Dec-03 02:48N 01°18' E 103°45'0 0.0
2017-Dec-03 02:27N 01°18' E 103°45'0 0.0
2017-Dec-03 01:57N 01°18' E 103°45'0 0.0
2017-Dec-03 01:30N 01°18' E 103°45'0 0.0
2017-Dec-02 23:45N 01°18' E 103°45'0 0.0
2017-Dec-02 22:00N 01°18' E 103°45'0 0.0
2017-Dec-02 17:25N 01°18' E 103°45'1 2.2
2017-Dec-02 17:00N 01°17' E 103°45'2 4.6
2017-Dec-02 16:30N 01°15' E 103°44'2 0.2
2017-Dec-02 08:45N 01°15' E 103°42'0 0.0
2017-Dec-02 08:30N 01°15' E 103°42'0 0.0
2017-Dec-02 07:42N 01°15' E 103°42'0 0.0
2017-Dec-02 07:27N 01°15' E 103°42'0 0.0
2017-Dec-02 06:45N 01°15' E 103°42'0 0.0
2017-Dec-02 06:30N 01°15' E 103°42'0 0.0
2017-Dec-02 04:45N 01°15' E 103°42'0 0.0
2017-Dec-02 04:06N 01°15' E 103°42'0 0.0
2017-Dec-02 03:39N 01°15' E 103°42'0 0.0
2017-Dec-02 02:39N 01°15' E 103°42'0 0.0
2017-Dec-02 01:42N 01°15' E 103°42'0 0.0
2017-Dec-02 01:27N 01°15' E 103°42'0 0.0
2017-Dec-01 23:21N 01°15' E 103°42'0 0.0
2017-Dec-01 16:03N 01°15' E 103°42'0 0.0
2017-Dec-01 15:54N 01°15' E 103°42'0 0.0
2017-Dec-01 11:45N 01°15' E 103°42'0 0.0
2017-Dec-01 11:12N 01°15' E 103°42'0 0.0
2017-Dec-01 10:51N 01°15' E 103°42'0 0.0
2017-Dec-01 10:18N 01°15' E 103°42'0 0.0
2017-Dec-01 08:36N 01°15' E 103°42'0 0.4
2017-Dec-01 08:27N 01°15' E 103°42'1 1.6
2017-Dec-01 08:00N 01°14' E 103°42'4 7.5
2017-Dec-01 07:30N 01°13' E 103°39'0 0.3
2017-Dec-01 06:56N 01°13' E 103°39'0 0.0
2017-Dec-01 06:29N 01°13' E 103°39'0 0.0
2017-Dec-01 05:59N 01°13' E 103°39'0 0.0
2017-Dec-01 05:29N 01°13' E 103°39'0 0.0
2017-Dec-01 04:59N 01°13' E 103°39'0 0.1
2017-Dec-01 04:26N 01°13' E 103°39'0 0.0
2017-Dec-01 04:01N 01°13' E 103°39'1 1.9
2017-Dec-01 03:31N 01°12' E 103°39'4 7.1
2017-Dec-01 03:01N 01°12' E 103°36'1 2.4
2017-Dec-01 02:29N 01°13' E 103°35'0 0.0
2017-Dec-01 01:56N 01°13' E 103°35'0 0.0
2017-Dec-01 01:29N 01°13' E 103°35'0 0.0
2017-Dec-01 00:59N 01°13' E 103°35'0 0.0
2017-Dec-01 00:29N 01°13' E 103°35'0 0.0
2017-Nov-30 23:59N 01°13' E 103°35'0 0.0
2017-Nov-30 23:29N 01°13' E 103°35'0 0.0
2017-Nov-30 22:59N 01°13' E 103°35'0 0.1
2017-Nov-30 22:29N 01°13' E 103°35'0 0.5
2017-Nov-30 22:00N 01°13' E 103°35'2 4.0
2017-Nov-30 21:30N 01°11' E 103°34'1 2.8
2017-Nov-30 21:00N 01°10' E 103°33'5 9.1
2017-Nov-30 20:28N 01°06' E 103°30'1 1.7
2017-Nov-30 19:57N 01°06' E 103°29'0 0.0
2017-Nov-30 05:07N 01°05' E 103°29'0 0.2
2017-Nov-30 05:01N 01°05' E 103°29'1 1.2
2017-Nov-30 04:30N 01°05' E 103°30'0 0.7
2017-Nov-30 03:57N 01°05' E 103°30'0 0.0
2017-Nov-30 03:30N 01°05' E 103°30'0 0.0
2017-Nov-30 02:57N 01°05' E 103°30'0 0.0
2017-Nov-30 02:30N 01°05' E 103°30'0 0.0
2017-Nov-30 01:48N 01°05' E 103°30'0 0.0
2017-Nov-30 01:24N 01°05' E 103°30'0 0.0
2017-Nov-30 00:54N 01°05' E 103°30'0 0.0
2017-Nov-30 00:30N 01°05' E 103°30'0 0.0
2017-Nov-29 23:57N 01°05' E 103°30'0 0.0
2017-Nov-29 23:30N 01°05' E 103°30'0 0.0
2017-Nov-29 22:39N 01°05' E 103°30'0 0.0
2017-Nov-29 22:30N 01°05' E 103°30'0 0.0
2017-Nov-29 21:57N 01°05' E 103°30'0 0.0
2017-Nov-29 21:12N 01°05' E 103°30'0 0.0
2017-Nov-29 20:57N 01°05' E 103°30'0 0.0
2017-Nov-29 20:21N 01°05' E 103°30'0 0.0
2017-Nov-29 19:51N 01°05' E 103°30'0 0.0
2017-Nov-29 19:21N 01°05' E 103°30'0 0.0
2017-Nov-29 18:51N 01°05' E 103°30'0 0.0
2017-Nov-29 17:15N 01°05' E 103°30'0 0.0
2017-Nov-29 16:33N 01°05' E 103°30'0 0.4
2017-Nov-29 16:27N 01°05' E 103°30'0 0.0
2017-Nov-29 15:54N 01°05' E 103°30'0 0.0
2017-Nov-29 15:21N 01°05' E 103°30'0 0.0
2017-Nov-29 14:39N 01°05' E 103°30'0 0.0
2017-Nov-29 14:30N 01°05' E 103°30'0 0.0
2017-Nov-29 13:36N 01°05' E 103°30'0 0.1
2017-Nov-29 13:30N 01°05' E 103°30'0 0.0
2017-Nov-29 12:48N 01°05' E 103°30'0 0.0
2017-Nov-29 12:29N 01°05' E 103°30'0 0.0
2017-Nov-29 10:44N 01°05' E 103°30'0 0.0
2017-Nov-29 10:17N 01°05' E 103°30'0 0.0
2017-Nov-29 09:47N 01°05' E 103°30'0 0.1
2017-Nov-29 09:29N 01°05' E 103°30'0 0.0
2017-Nov-29 08:44N 01°05' E 103°30'0 0.0
2017-Nov-29 08:20N 01°05' E 103°30'0 0.0
2017-Nov-29 05:38N 01°05' E 103°30'0 0.0
2017-Nov-29 04:14N 01°05' E 103°30'0 0.0
2017-Nov-29 03:38N 01°05' E 103°30'0 0.1
2017-Nov-29 03:29N 01°05' E 103°30'0 0.0
2017-Nov-29 02:59N 01°05' E 103°30'0 0.0
2017-Nov-29 01:26N 01°05' E 103°30'0 0.0
2017-Nov-29 00:59N 01°05' E 103°30'0 0.0
2017-Nov-29 00:29N 01°05' E 103°30'0 0.0
2017-Nov-28 23:59N 01°05' E 103°30'0 0.0
2017-Nov-28 23:26N 01°05' E 103°30'0 0.0
2017-Nov-28 22:38N 01°05' E 103°30'0 0.1
2017-Nov-28 22:29N 01°05' E 103°30'0 0.0
2017-Nov-28 21:47N 01°05' E 103°30'0 0.0
2017-Nov-28 21:23N 01°05' E 103°30'0 0.0
2017-Nov-28 20:59N 01°05' E 103°30'0 0.0
2017-Nov-28 19:35N 01°05' E 103°30'0 0.2
2017-Nov-28 19:14N 01°05' E 103°30'0 2.0
2017-Nov-28 19:00N 01°05' E 103°30'1 2.3
2017-Nov-28 18:30N 01°06' E 103°31'510.4
2017-Nov-28 17:59N 01°10' E 103°34'612.6
2017-Nov-28 17:30N 01°11' E 103°40'612.1
2017-Nov-28 17:00N 01°09' E 103°46'713.0
2017-Nov-28 16:30N 01°12' E 103°52'713.1
2017-Nov-28 16:00N 01°15' E 103°57'  

Dump ship's entire track history